sensor_id;sensor_type;location;lat;lon;timestamp;pressure;altitude;pressure_sealevel;temperature;humidity
23805;BME280;12083;52.098;7.582;2022-08-04T00:03:55;100998.97;;;26.33;50.47
23805;BME280;12083;52.098;7.582;2022-08-04T00:06:33;100986.75;;;26.29;50.42
23805;BME280;12083;52.098;7.582;2022-08-04T00:09:08;100993.22;;;26.27;50.38
23805;BME280;12083;52.098;7.582;2022-08-04T00:11:35;100988.38;;;26.21;50.39
23805;BME280;12083;52.098;7.582;2022-08-04T00:14:07;100994.84;;;26.18;50.84
23805;BME280;12083;52.098;7.582;2022-08-04T00:16:36;100990.72;;;26.14;50.55
23805;BME280;12083;52.098;7.582;2022-08-04T00:19:03;100987.28;;;26.12;51.02
23805;BME280;12083;52.098;7.582;2022-08-04T00:21:33;100981.19;;;26.10;51.04
23805;BME280;12083;52.098;7.582;2022-08-04T00:24:00;100986.81;;;26.07;51.10
23805;BME280;12083;52.098;7.582;2022-08-04T00:26:27;100981.69;;;26.04;51.51
23805;BME280;12083;52.098;7.582;2022-08-04T00:28:52;100980.22;;;26.00;51.58
23805;BME280;12083;52.098;7.582;2022-08-04T00:31:21;100985.88;;;25.97;51.68
23805;BME280;12083;52.098;7.582;2022-08-04T00:33:47;100985.03;;;25.96;51.50
23805;BME280;12083;52.098;7.582;2022-08-04T00:36:13;100981.84;;;25.91;51.63
23805;BME280;12083;52.098;7.582;2022-08-04T00:38:40;100984.94;;;25.87;52.06
23805;BME280;12083;52.098;7.582;2022-08-04T00:44:12;100982.75;;;25.81;51.82
23805;BME280;12083;52.098;7.582;2022-08-04T00:47:18;100980.31;;;25.78;52.18
23805;BME280;12083;52.098;7.582;2022-08-04T00:50:03;100980.59;;;25.75;52.33
23805;BME280;12083;52.098;7.582;2022-08-04T01:00:10;100985.16;;;25.63;52.67
23805;BME280;12083;52.098;7.582;2022-08-04T01:05:31;100979.16;;;25.59;52.74
23805;BME280;12083;52.098;7.582;2022-08-04T01:13:28;100969.75;;;25.54;53.09
23805;BME280;12083;52.098;7.582;2022-08-04T01:16:08;100969.03;;;25.52;53.48
23805;BME280;12083;52.098;7.582;2022-08-04T01:18:59;100968.41;;;25.48;53.38
23805;BME280;12083;52.098;7.582;2022-08-04T01:27:04;100962.16;;;25.48;53.49
23805;BME280;12083;52.098;7.582;2022-08-04T01:29:37;100963.03;;;25.48;53.82
23805;BME280;12083;52.098;7.582;2022-08-04T01:32:16;100958.63;;;25.47;54.05
23805;BME280;12083;52.098;7.582;2022-08-04T01:37:34;100963.25;;;25.45;53.89
23805;BME280;12083;52.098;7.582;2022-08-04T01:40:06;100957.00;;;25.45;54.12
23805;BME280;12083;52.098;7.582;2022-08-04T01:42:35;100953.59;;;25.43;54.08
23805;BME280;12083;52.098;7.582;2022-08-04T01:45:06;100953.72;;;25.41;54.56
23805;BME280;12083;52.098;7.582;2022-08-04T01:47:39;100947.63;;;25.39;54.35
23805;BME280;12083;52.098;7.582;2022-08-04T01:50:09;100946.75;;;25.39;54.51
23805;BME280;12083;52.098;7.582;2022-08-04T01:52:37;100950.44;;;25.38;54.37
23805;BME280;12083;52.098;7.582;2022-08-04T01:55:06;100946.16;;;25.35;54.23
23805;BME280;12083;52.098;7.582;2022-08-04T01:57:36;100942.50;;;25.36;54.80
23805;BME280;12083;52.098;7.582;2022-08-04T02:00:06;100946.28;;;25.34;54.80
23805;BME280;12083;52.098;7.582;2022-08-04T02:02:32;100946.41;;;25.32;54.43
23805;BME280;12083;52.098;7.582;2022-08-04T02:04:58;100938.47;;;25.31;54.84
23805;BME280;12083;52.098;7.582;2022-08-04T02:07:37;100931.13;;;25.33;54.95
23805;BME280;12083;52.098;7.582;2022-08-04T02:10:29;100932.00;;;25.33;55.07
23805;BME280;12083;52.098;7.582;2022-08-04T02:15:57;100931.13;;;25.33;54.59
23805;BME280;12083;52.098;7.582;2022-08-04T02:18:28;100934.81;;;25.32;54.79
23805;BME280;12083;52.098;7.582;2022-08-04T02:20:58;100928.56;;;25.31;55.27
23805;BME280;12083;52.098;7.582;2022-08-04T02:23:35;100923.56;;;25.27;55.15
23805;BME280;12083;52.098;7.582;2022-08-04T02:26:04;100921.72;;;25.27;55.31
23805;BME280;12083;52.098;7.582;2022-08-04T02:29:02;100927.97;;;25.28;54.90
23805;BME280;12083;52.098;7.582;2022-08-04T02:34:16;100914.88;;;25.23;55.17
23805;BME280;12083;52.098;7.582;2022-08-04T02:36:44;100922.25;;;25.21;55.49
23805;BME280;12083;52.098;7.582;2022-08-04T02:39:17;100914.28;;;25.20;55.52
23805;BME280;12083;52.098;7.582;2022-08-04T02:41:45;100904.66;;;25.17;55.33
23805;BME280;12083;52.098;7.582;2022-08-04T02:44:12;100903.78;;;25.17;55.69
23805;BME280;12083;52.098;7.582;2022-08-04T02:46:40;100911.97;;;25.15;55.70
23805;BME280;12083;52.098;7.582;2022-08-04T02:49:08;100902.34;;;25.12;55.86
23805;BME280;12083;52.098;7.582;2022-08-04T02:51:37;100901.47;;;25.12;55.86
23805;BME280;12083;52.098;7.582;2022-08-04T02:54:05;100900.63;;;25.11;55.78
23805;BME280;12083;52.098;7.582;2022-08-04T02:56:33;100896.34;;;25.09;56.06
23805;BME280;12083;52.098;7.582;2022-08-04T02:59:10;100891.94;;;25.08;56.12
23805;BME280;12083;52.098;7.582;2022-08-04T03:01:37;100890.13;;;25.08;56.05
23805;BME280;12083;52.098;7.582;2022-08-04T03:37:18;100877.53;;;24.76;57.24
23805;BME280;12083;52.098;7.582;2022-08-04T03:48:42;100873.38;;;24.60;57.66
23805;BME280;12083;52.098;7.582;2022-08-04T03:54:31;100868.53;;;24.54;57.85
23805;BME280;12083;52.098;7.582;2022-08-04T04:07:36;100870.47;;;24.41;58.62
23805;BME280;12083;52.098;7.582;2022-08-04T04:10:34;100868.78;;;24.40;58.60
23805;BME280;12083;52.098;7.582;2022-08-04T05:01:26;100840.91;;;24.41;59.91
23805;BME280;12083;52.098;7.582;2022-08-04T05:10:00;100846.53;;;24.49;60.28
23805;BME280;12083;52.098;7.582;2022-08-04T05:12:41;100839.09;;;24.53;60.39
23805;BME280;12083;52.098;7.582;2022-08-04T05:15:13;100842.38;;;24.56;60.54
23805;BME280;12083;52.098;7.582;2022-08-04T05:17:44;100845.56;;;24.61;60.41
23805;BME280;12083;52.098;7.582;2022-08-04T05:20:26;100847.75;;;24.67;60.65
23805;BME280;12083;52.098;7.582;2022-08-04T05:22:57;100841.88;;;24.74;60.53
23805;BME280;12083;52.098;7.582;2022-08-04T05:25:43;100848.47;;;24.81;60.47
23805;BME280;12083;52.098;7.582;2022-08-04T05:28:15;100842.63;;;24.87;60.49
23805;BME280;12083;52.098;7.582;2022-08-04T05:30:46;100839.44;;;24.93;60.70
23805;BME280;12083;52.098;7.582;2022-08-04T05:33:18;100830.63;;;25.02;60.49
23805;BME280;12083;52.098;7.582;2022-08-04T05:35:49;100838.91;;;25.10;60.84
23805;BME280;12083;52.098;7.582;2022-08-04T05:38:19;100827.38;;;25.19;60.58
23805;BME280;12083;52.098;7.582;2022-08-04T05:40:47;100839.09;;;25.29;60.64
23805;BME280;12083;52.098;7.582;2022-08-04T05:43:15;100830.97;;;25.40;60.74
23805;BME280;12083;52.098;7.582;2022-08-04T05:45:41;100834.59;;;25.50;60.45
23805;BME280;12083;52.098;7.582;2022-08-04T05:48:08;100825.53;;;25.63;59.93
23805;BME280;12083;52.098;7.582;2022-08-04T05:50:35;100827.28;;;25.73;60.54
23805;BME280;12083;52.098;7.582;2022-08-04T05:53:01;100822.69;;;25.85;60.23
23805;BME280;12083;52.098;7.582;2022-08-04T05:55:29;100831.16;;;26.01;59.75
23805;BME280;12083;52.098;7.582;2022-08-04T05:57:55;100828.41;;;26.33;59.95
23805;BME280;12083;52.098;7.582;2022-08-04T06:00:23;100821.91;;;26.85;59.80
23805;BME280;12083;52.098;7.582;2022-08-04T06:02:52;100810.94;;;27.55;59.18
23805;BME280;12083;52.098;7.582;2022-08-04T06:05:18;100817.22;;;28.21;57.88
23805;BME280;12083;52.098;7.582;2022-08-04T06:07:45;100808.56;;;28.82;56.88
23805;BME280;12083;52.098;7.582;2022-08-04T06:10:11;100815.28;;;29.41;55.69
23805;BME280;12083;52.098;7.582;2022-08-04T06:12:43;100818.50;;;30.05;54.88
23805;BME280;12083;52.098;7.582;2022-08-04T06:15:11;100811.06;;;30.67;53.36
23805;BME280;12083;52.098;7.582;2022-08-04T06:17:43;100809.22;;;31.26;52.14
23805;BME280;12083;52.098;7.582;2022-08-04T06:20:11;100804.81;;;31.89;51.08
23805;BME280;12083;52.098;7.582;2022-08-04T06:22:40;100806.84;;;32.58;50.30
23805;BME280;12083;52.098;7.582;2022-08-04T06:25:07;100816.03;;;33.27;48.92
23805;BME280;12083;52.098;7.582;2022-08-04T06:27:36;100810.06;;;34.07;47.90
23805;BME280;12083;52.098;7.582;2022-08-04T06:30:03;100821.03;;;34.65;46.24
23805;BME280;12083;52.098;7.582;2022-08-04T06:32:33;100815.34;;;34.81;45.33
23805;BME280;12083;52.098;7.582;2022-08-04T06:35:14;100817.34;;;35.09;44.82
23805;BME280;12083;52.098;7.582;2022-08-04T06:37:40;100816.25;;;35.18;44.56
23805;BME280;12083;52.098;7.582;2022-08-04T06:40:07;100816.25;;;35.18;43.55
23805;BME280;12083;52.098;7.582;2022-08-04T06:42:34;100823.66;;;35.24;43.57
23805;BME280;12083;52.098;7.582;2022-08-04T06:45:00;100822.06;;;35.57;42.90
23805;BME280;12083;52.098;7.582;2022-08-04T06:47:29;100822.63;;;35.67;42.16
23805;BME280;12083;52.098;7.582;2022-08-04T06:49:55;100828.50;;;35.64;41.79
23805;BME280;12083;52.098;7.582;2022-08-04T06:52:21;100825.59;;;35.72;41.89
23805;BME280;12083;52.098;7.582;2022-08-04T06:54:49;100817.66;;;36.33;40.99
23805;BME280;12083;52.098;7.582;2022-08-04T06:57:19;100814.66;;;37.10;39.47
23805;BME280;12083;52.098;7.582;2022-08-04T06:59:46;100813.69;;;37.50;38.84
23805;BME280;12083;52.098;7.582;2022-08-04T07:02:14;100811.59;;;37.59;38.50
23805;BME280;12083;52.098;7.582;2022-08-04T07:04:42;100809.44;;;37.48;38.27
23805;BME280;12083;52.098;7.582;2022-08-04T07:07:10;100809.94;;;37.64;37.94
23805;BME280;12083;52.098;7.582;2022-08-04T07:09:37;100802.09;;;38.14;37.44
23805;BME280;12083;52.098;7.582;2022-08-04T07:12:04;100806.41;;;38.54;36.41
23805;BME280;12083;52.098;7.582;2022-08-04T07:14:32;100804.06;;;38.65;36.03
23805;BME280;12083;52.098;7.582;2022-08-04T07:17:05;100801.94;;;38.67;36.00
23805;BME280;12083;52.098;7.582;2022-08-04T07:19:33;100800.72;;;38.56;35.65
23805;BME280;12083;52.098;7.582;2022-08-04T07:21:59;100804.16;;;38.45;35.72
23805;BME280;12083;52.098;7.582;2022-08-04T07:24:31;100796.94;;;38.50;35.49
23805;BME280;12083;52.098;7.582;2022-08-04T07:26:57;100801.94;;;38.67;35.39
23805;BME280;12083;52.098;7.582;2022-08-04T07:29:24;100794.81;;;39.03;34.56
23805;BME280;12083;52.098;7.582;2022-08-04T07:31:50;100793.47;;;39.50;34.41
23805;BME280;12083;52.098;7.582;2022-08-04T07:34:18;100794.97;;;39.96;33.38
23805;BME280;12083;52.098;7.582;2022-08-04T07:36:44;100789.34;;;40.45;32.81
23805;BME280;12083;52.098;7.582;2022-08-04T07:39:09;100787.56;;;40.87;32.23
23805;BME280;12083;52.098;7.582;2022-08-04T07:41:35;100797.81;;;41.28;31.84
23805;BME280;12083;52.098;7.582;2022-08-04T07:44:02;100795.03;;;41.70;31.10
23805;BME280;12083;52.098;7.582;2022-08-04T07:46:28;100786.66;;;41.88;30.76
23805;BME280;12083;52.098;7.582;2022-08-04T07:48:54;100790.72;;;42.09;30.18
23805;BME280;12083;52.098;7.582;2022-08-04T07:51:20;100796.34;;;42.37;30.19
23805;BME280;12083;52.098;7.582;2022-08-04T07:53:47;100795.44;;;42.60;29.54
23805;BME280;12083;52.098;7.582;2022-08-04T07:56:14;100795.69;;;42.70;28.98
23805;BME280;12083;52.098;7.582;2022-08-04T07:58:41;100797.84;;;42.68;29.02
23805;BME280;12083;52.098;7.582;2022-08-04T08:01:08;100795.94;;;42.57;29.14
23805;BME280;12083;52.098;7.582;2022-08-04T08:03:35;100802.09;;;42.47;28.66
23805;BME280;12083;52.098;7.582;2022-08-04T08:06:03;100799.63;;;42.22;29.10
23805;BME280;12083;52.098;7.582;2022-08-04T08:08:28;100796.81;;;41.76;29.47
23805;BME280;12083;52.098;7.582;2022-08-04T08:10:54;100799.97;;;41.26;29.50
23805;BME280;12083;52.098;7.582;2022-08-04T08:13:21;100795.94;;;40.81;29.95
23805;BME280;12083;52.098;7.582;2022-08-04T08:15:48;100793.81;;;40.47;30.10
23805;BME280;12083;52.098;7.582;2022-08-04T08:18:14;100795.66;;;40.16;30.44
23805;BME280;12083;52.098;7.582;2022-08-04T08:20:43;100795.56;;;39.80;30.36
23805;BME280;12083;52.098;7.582;2022-08-04T08:23:10;100785.50;;;39.36;30.85
23805;BME280;12083;52.098;7.582;2022-08-04T08:25:36;100790.41;;;38.96;30.82
23805;BME280;12083;52.098;7.582;2022-08-04T08:28:03;100791.38;;;38.64;30.93
23805;BME280;12083;52.098;7.582;2022-08-04T08:30:29;100783.63;;;38.47;31.15
23805;BME280;12083;52.098;7.582;2022-08-04T08:32:55;100787.88;;;38.37;31.27
23805;BME280;12083;52.098;7.582;2022-08-04T08:35:24;100783.69;;;38.21;31.13
23805;BME280;12083;52.098;7.582;2022-08-04T08:37:53;100781.63;;;38.10;31.04
23805;BME280;12083;52.098;7.582;2022-08-04T08:40:29;100777.63;;;37.99;31.15
23805;BME280;12083;52.098;7.582;2022-08-04T08:51:58;100778.69;;;37.52;31.48
23805;BME280;12083;52.098;7.582;2022-08-04T08:54:50;100778.50;;;37.60;31.20
23805;BME280;12083;52.098;7.582;2022-08-04T08:57:32;100779.53;;;37.73;31.04
23805;BME280;12083;52.098;7.582;2022-08-04T09:00:15;100774.47;;;37.83;31.04
23805;BME280;12083;52.098;7.582;2022-08-04T09:10:49;100771.88;;;38.21;30.35
23805;BME280;12083;52.098;7.582;2022-08-04T09:19:27;100782.44;;;38.17;30.65
23805;BME280;12083;52.098;7.582;2022-08-04T09:22:08;100777.97;;;38.29;30.38
23805;BME280;12083;52.098;7.582;2022-08-04T09:27:25;100773.28;;;38.49;30.40
23805;BME280;12083;52.098;7.582;2022-08-04T09:30:03;100779.13;;;38.66;30.22
23805;BME280;12083;52.098;7.582;2022-08-04T09:32:46;100771.22;;;38.83;29.72
23805;BME280;12083;52.098;7.582;2022-08-04T09:35:39;100782.56;;;38.99;29.60
23805;BME280;12083;52.098;7.582;2022-08-04T09:38:17;100767.50;;;39.08;29.80
23805;BME280;12083;52.098;7.582;2022-08-04T09:40:57;100771.88;;;39.16;29.83
23805;BME280;12083;52.098;7.582;2022-08-04T09:46:19;100770.69;;;39.05;29.64
23805;BME280;12083;52.098;7.582;2022-08-04T09:54:20;100758.25;;;39.03;30.10
23805;BME280;12083;52.098;7.582;2022-08-04T09:56:57;100767.53;;;39.02;29.77
23805;BME280;12083;52.098;7.582;2022-08-04T09:59:29;100761.25;;;38.95;29.94
23805;BME280;12083;52.098;7.582;2022-08-04T10:02:06;100763.81;;;38.83;29.69
23805;BME280;12083;52.098;7.582;2022-08-04T10:04:34;100756.03;;;38.74;30.04
23805;BME280;12083;52.098;7.582;2022-08-04T10:10:19;100751.63;;;38.73;29.79
23805;BME280;12083;52.098;7.582;2022-08-04T10:13:12;100763.34;;;38.93;30.09
23805;BME280;12083;52.098;7.582;2022-08-04T10:21:25;100758.84;;;39.05;29.45
23805;BME280;12083;52.098;7.582;2022-08-04T10:24:18;100766.22;;;39.11;29.63
23805;BME280;12083;52.098;7.582;2022-08-04T10:29:23;100761.34;;;39.44;29.09
23805;BME280;12083;52.098;7.582;2022-08-04T10:32:17;100759.00;;;39.73;28.93
23805;BME280;12083;52.098;7.582;2022-08-04T10:35:10;100757.03;;;39.98;28.74
23805;BME280;12083;52.098;7.582;2022-08-04T10:37:55;100760.38;;;40.43;28.56
23805;BME280;12083;52.098;7.582;2022-08-04T10:41:31;100771.97;;;41.11;27.71
23805;BME280;12083;52.098;7.582;2022-08-04T10:46:07;100780.41;;;42.27;26.47
23805;BME280;12083;52.098;7.582;2022-08-04T10:54:12;100770.91;;;43.65;25.40
23805;BME280;12083;52.098;7.582;2022-08-04T10:56:48;100771.31;;;43.57;25.41
23805;BME280;12083;52.098;7.582;2022-08-04T10:59:25;100770.56;;;43.78;25.39
23805;BME280;12083;52.098;7.582;2022-08-04T11:01:58;100769.34;;;44.24;24.62
23805;BME280;12083;52.098;7.582;2022-08-04T11:04:47;100768.59;;;44.77;24.38
23805;BME280;12083;52.098;7.582;2022-08-04T11:07:18;100771.53;;;44.92;24.39
23805;BME280;12083;52.098;7.582;2022-08-04T11:09:44;100771.44;;;44.82;24.54
23805;BME280;12083;52.098;7.582;2022-08-04T11:12:17;100773.97;;;44.40;24.33
23805;BME280;12083;52.098;7.582;2022-08-04T11:15:20;100768.81;;;43.89;24.82
23805;BME280;12083;52.098;7.582;2022-08-04T11:17:50;100766.38;;;43.42;24.83
23805;BME280;12083;52.098;7.582;2022-08-04T11:20:34;100781.25;;;43.08;25.24
23805;BME280;12083;52.098;7.582;2022-08-04T11:23:11;100780.69;;;42.94;25.45
23805;BME280;12083;52.098;7.582;2022-08-04T11:30:50;100777.53;;;42.62;26.14
23805;BME280;12083;52.098;7.582;2022-08-04T11:33:21;100779.34;;;42.57;25.99
23805;BME280;12083;52.098;7.582;2022-08-04T11:41:39;100781.09;;;42.35;25.79
23805;BME280;12083;52.098;7.582;2022-08-04T11:44:21;100787.47;;;42.35;25.60
23805;BME280;12083;52.098;7.582;2022-08-04T11:46:50;100786.41;;;42.24;25.83
23805;BME280;12083;52.098;7.582;2022-08-04T11:49:32;100786.78;;;42.05;25.24
23805;BME280;12083;52.098;7.582;2022-08-04T11:52:00;100784.59;;;41.95;25.72
23805;BME280;12083;52.098;7.582;2022-08-04T11:54:27;100784.03;;;41.93;25.61
23805;BME280;12083;52.098;7.582;2022-08-04T11:56:54;100784.03;;;41.93;25.64
23805;BME280;12083;52.098;7.582;2022-08-04T11:59:22;100791.09;;;41.89;25.42
23805;BME280;12083;52.098;7.582;2022-08-04T12:02:05;100802.28;;;41.83;25.21
23805;BME280;12083;52.098;7.582;2022-08-04T12:04:57;100790.81;;;41.79;25.34
23805;BME280;12083;52.098;7.582;2022-08-04T12:07:48;100801.13;;;41.72;25.50
23805;BME280;12083;52.098;7.582;2022-08-04T12:15:55;100817.91;;;41.17;25.64
23805;BME280;12083;52.098;7.582;2022-08-04T12:18:39;100813.22;;;40.88;25.83
23805;BME280;12083;52.098;7.582;2022-08-04T12:21:15;100805.91;;;40.64;25.63
23805;BME280;12083;52.098;7.582;2022-08-04T12:23:44;100818.44;;;40.41;26.12
23805;BME280;12083;52.098;7.582;2022-08-04T12:26:30;100819.13;;;40.19;26.01
23805;BME280;12083;52.098;7.582;2022-08-04T12:29:01;100813.78;;;39.99;26.14
23805;BME280;12083;52.098;7.582;2022-08-04T12:31:35;100826.88;;;39.79;26.61
23805;BME280;12083;52.098;7.582;2022-08-04T12:34:31;100818.09;;;39.64;26.90
23805;BME280;12083;52.098;7.582;2022-08-04T12:37:22;100832.84;;;39.44;26.90
23805;BME280;12083;52.098;7.582;2022-08-04T12:39:52;100836.75;;;39.30;27.06
23805;BME280;12083;52.098;7.582;2022-08-04T12:42:23;100855.44;;;39.15;27.23
23805;BME280;12083;52.098;7.582;2022-08-04T12:44:53;100861.88;;;38.96;27.16
23805;BME280;12083;52.098;7.582;2022-08-04T12:47:26;100861.28;;;38.74;27.10
23805;BME280;12083;52.098;7.582;2022-08-04T12:49:58;100861.16;;;38.49;27.29
23805;BME280;12083;52.098;7.582;2022-08-04T12:52:24;100864.56;;;38.25;27.44
23805;BME280;12083;52.098;7.582;2022-08-04T12:54:53;100863.13;;;38.03;27.47
23805;BME280;12083;52.098;7.582;2022-08-04T12:57:20;100880.59;;;37.82;27.65
23805;BME280;12083;52.098;7.582;2022-08-04T12:59:47;100880.56;;;37.62;27.98
23805;BME280;12083;52.098;7.582;2022-08-04T13:02:17;100876.91;;;37.42;28.28
23805;BME280;12083;52.098;7.582;2022-08-04T13:04:48;100878.97;;;37.20;28.62
23805;BME280;12083;52.098;7.582;2022-08-04T13:07:19;100864.34;;;37.00;28.96
23805;BME280;12083;52.098;7.582;2022-08-04T13:09:45;100876.50;;;36.85;29.06
23805;BME280;12083;52.098;7.582;2022-08-04T13:12:17;100861.66;;;36.66;29.44
23805;BME280;12083;52.098;7.582;2022-08-04T13:14:48;100862.63;;;36.52;29.62
23805;BME280;12083;52.098;7.582;2022-08-04T13:17:15;100871.59;;;36.39;30.21
23805;BME280;12083;52.098;7.582;2022-08-04T13:19:48;100866.63;;;36.21;30.82
23805;BME280;12083;52.098;7.582;2022-08-04T13:22:24;100865.31;;;36.11;30.79
23805;BME280;12083;52.098;7.582;2022-08-04T13:24:51;100875.06;;;35.99;31.03
23805;BME280;12083;52.098;7.582;2022-08-04T13:27:18;100877.50;;;35.87;31.72
23805;BME280;12083;52.098;7.582;2022-08-04T13:29:46;100871.31;;;35.78;32.03
23805;BME280;12083;52.098;7.582;2022-08-04T13:32:18;100882.38;;;35.70;32.29
23805;BME280;12083;52.098;7.582;2022-08-04T13:34:48;100885.91;;;35.64;32.82
23805;BME280;12083;52.098;7.582;2022-08-04T13:37:14;100875.91;;;35.57;32.82
23805;BME280;12083;52.098;7.582;2022-08-04T13:39:47;100882.81;;;35.53;33.47
23805;BME280;12083;52.098;7.582;2022-08-04T13:42:15;100875.97;;;35.42;33.95
23805;BME280;12083;52.098;7.582;2022-08-04T13:44:44;100876.06;;;35.34;34.26
23805;BME280;12083;52.098;7.582;2022-08-04T13:47:14;100871.97;;;35.23;34.02
23805;BME280;12083;52.098;7.582;2022-08-04T13:49:40;100862.00;;;35.16;34.42
23805;BME280;12083;52.098;7.582;2022-08-04T13:52:07;100855.22;;;35.12;34.83
23805;BME280;12083;52.098;7.582;2022-08-04T13:54:40;100853.91;;;35.08;34.88
23805;BME280;12083;52.098;7.582;2022-08-04T13:57:12;100851.28;;;35.00;34.90
23805;BME280;12083;52.098;7.582;2022-08-04T13:59:40;100844.91;;;34.92;35.36
23805;BME280;12083;52.098;7.582;2022-08-04T14:02:23;100846.31;;;34.88;35.17
23805;BME280;12083;52.098;7.582;2022-08-04T14:04:53;100849.25;;;34.87;35.43
23805;BME280;12083;52.098;7.582;2022-08-04T14:07:24;100840.22;;;34.86;35.74
23805;BME280;12083;52.098;7.582;2022-08-04T14:09:50;100843.97;;;34.85;35.97
23805;BME280;12083;52.098;7.582;2022-08-04T14:12:16;100836.81;;;34.84;36.13
23805;BME280;12083;52.098;7.582;2022-08-04T14:14:48;100843.31;;;34.83;36.37
23805;BME280;12083;52.098;7.582;2022-08-04T14:17:24;100835.88;;;34.77;36.30
23805;BME280;12083;52.098;7.582;2022-08-04T14:19:55;100843.44;;;34.75;36.72
23805;BME280;12083;52.098;7.582;2022-08-04T14:25:11;100840.03;;;34.73;37.05
23805;BME280;12083;52.098;7.582;2022-08-04T14:27:46;100845.50;;;34.73;36.95
23805;BME280;12083;52.098;7.582;2022-08-04T14:30:31;100845.09;;;34.76;36.71
23805;BME280;12083;52.098;7.582;2022-08-04T14:33:11;100835.88;;;34.77;36.76
23805;BME280;12083;52.098;7.582;2022-08-04T14:35:38;100840.56;;;34.83;37.15
23805;BME280;12083;52.098;7.582;2022-08-04T14:38:08;100842.38;;;34.91;37.28
23805;BME280;12083;52.098;7.582;2022-08-04T14:40:39;100839.16;;;35.02;37.31
23805;BME280;12083;52.098;7.582;2022-08-04T14:43:06;100831.03;;;35.09;37.20
23805;BME280;12083;52.098;7.582;2022-08-04T14:45:40;100839.31;;;35.15;37.23
23805;BME280;12083;52.098;7.582;2022-08-04T14:48:16;100826.09;;;35.19;37.06
23805;BME280;12083;52.098;7.582;2022-08-04T14:50:44;100822.63;;;35.25;36.99
23805;BME280;12083;52.098;7.582;2022-08-04T14:53:14;100823.91;;;35.29;37.05
23805;BME280;12083;52.098;7.582;2022-08-04T14:55:52;100832.56;;;35.32;37.11
23805;BME280;12083;52.098;7.582;2022-08-04T14:58:30;100825.22;;;35.33;37.23
23805;BME280;12083;52.098;7.582;2022-08-04T15:00:59;100832.75;;;35.31;36.86
23805;BME280;12083;52.098;7.582;2022-08-04T15:03:26;100820.53;;;35.27;37.18
23805;BME280;12083;52.098;7.582;2022-08-04T15:05:54;100821.09;;;35.22;36.80
23805;BME280;12083;52.098;7.582;2022-08-04T15:08:20;100821.72;;;35.18;37.07
23805;BME280;12083;52.098;7.582;2022-08-04T15:10:46;100824.13;;;35.13;37.26
23805;BME280;12083;52.098;7.582;2022-08-04T15:13:11;100835.06;;;35.13;37.01
23805;BME280;12083;52.098;7.582;2022-08-04T15:15:39;100836.31;;;35.10;36.73
23805;BME280;12083;52.098;7.582;2022-08-04T15:18:09;100835.81;;;35.07;36.69
23805;BME280;12083;52.098;7.582;2022-08-04T15:20:36;100842.72;;;35.03;36.64
23805;BME280;12083;52.098;7.582;2022-08-04T15:23:04;100848.53;;;35.00;36.69
23805;BME280;12083;52.098;7.582;2022-08-04T15:25:38;100844.91;;;34.92;36.80
23805;BME280;12083;52.098;7.582;2022-08-04T15:28:07;100855.34;;;34.89;36.95
23805;BME280;12083;52.098;7.582;2022-08-04T15:30:37;100859.44;;;34.78;37.19
23805;BME280;12083;52.098;7.582;2022-08-04T15:33:04;100854.25;;;34.69;37.05
23805;BME280;12083;52.098;7.582;2022-08-04T15:35:30;100854.53;;;34.59;37.54
23805;BME280;12083;52.098;7.582;2022-08-04T15:40:47;100849.63;;;34.40;37.50
23805;BME280;12083;52.098;7.582;2022-08-04T15:46:36;100857.31;;;34.22;37.51
23805;BME280;12083;52.098;7.582;2022-08-04T15:49:18;100863.72;;;34.14;37.96
23805;BME280;12083;52.098;7.582;2022-08-04T15:51:45;100862.56;;;34.09;37.81
23805;BME280;12083;52.098;7.582;2022-08-04T15:56:47;100867.97;;;33.94;38.26
23805;BME280;12083;52.098;7.582;2022-08-04T15:59:13;100855.28;;;33.86;38.08
23805;BME280;12083;52.098;7.582;2022-08-04T16:01:38;100856.19;;;33.79;38.06
23805;BME280;12083;52.098;7.582;2022-08-04T16:04:22;100853.53;;;33.71;38.26
23805;BME280;12083;52.098;7.582;2022-08-04T16:06:48;100858.03;;;33.64;38.35
23805;BME280;12083;52.098;7.582;2022-08-04T16:09:22;100869.13;;;33.54;38.21
23805;BME280;12083;52.098;7.582;2022-08-04T16:11:48;100853.88;;;33.45;38.50
23805;BME280;12083;52.098;7.582;2022-08-04T16:14:14;100860.22;;;33.37;38.38
23805;BME280;12083;52.098;7.582;2022-08-04T16:21:58;100875.03;;;33.12;38.67
23805;BME280;12083;52.098;7.582;2022-08-04T16:26:56;100874.72;;;32.99;38.77
23805;BME280;12083;52.098;7.582;2022-08-04T16:34:32;100902.16;;;32.89;39.18
23805;BME280;12083;52.098;7.582;2022-08-04T16:37:09;100895.19;;;32.87;39.36
23805;BME280;12083;52.098;7.582;2022-08-04T16:39:35;100896.41;;;32.84;39.38
23805;BME280;12083;52.098;7.582;2022-08-04T16:44:59;100889.97;;;32.77;39.44
23805;BME280;12083;52.098;7.582;2022-08-04T16:50:20;100902.25;;;32.65;39.76
23805;BME280;12083;52.098;7.582;2022-08-04T16:52:50;100905.66;;;32.59;39.81
23805;BME280;12083;52.098;7.582;2022-08-04T16:55:18;100900.53;;;32.56;40.00
23805;BME280;12083;52.098;7.582;2022-08-04T16:57:53;100897.50;;;32.51;40.30
23805;BME280;12083;52.098;7.582;2022-08-04T17:02:55;100899.41;;;32.42;40.20
23805;BME280;12083;52.098;7.582;2022-08-04T17:05:25;100892.75;;;32.37;40.39
23805;BME280;12083;52.098;7.582;2022-08-04T17:07:53;100900.63;;;32.32;40.46
23805;BME280;12083;52.098;7.582;2022-08-04T17:10:19;100903.66;;;32.29;40.80
23805;BME280;12083;52.098;7.582;2022-08-04T17:12:54;100906.72;;;32.26;40.91
23805;BME280;12083;52.098;7.582;2022-08-04T17:15:21;100901.81;;;32.21;41.34
23805;BME280;12083;52.098;7.582;2022-08-04T17:17:47;100894.00;;;32.18;40.89
23805;BME280;12083;52.098;7.582;2022-08-04T17:20:12;100897.91;;;32.16;41.29
23805;BME280;12083;52.098;7.582;2022-08-04T17:22:39;100893.16;;;32.09;41.27